createdAt,value
2018-02-06T00:00:52.382Z,-0.65
2018-02-06T00:01:56.599Z,-0.78
2018-02-06T00:03:00.897Z,-0.83
2018-02-06T00:04:05.994Z,-0.58
2018-02-06T00:05:10.492Z,-0.75
2018-02-06T00:06:14.730Z,-0.74
2018-02-06T00:07:18.965Z,-0.82
2018-02-06T00:08:23.198Z,-0.98
2018-02-06T00:09:27.444Z,-0.96
2018-02-06T00:10:31.612Z,-1.04
2018-02-06T00:11:36.832Z,-1.02
2018-02-06T00:12:41.222Z,-0.82
2018-02-06T00:13:45.414Z,-0.86
2018-02-06T00:14:49.631Z,-0.93
2018-02-06T00:15:54.294Z,-0.87
2018-02-06T00:16:58.988Z,-0.93
2018-02-06T00:18:03.991Z,-0.68
2018-02-06T00:19:08.154Z,-0.62
2018-02-06T00:20:12.374Z,-0.75
2018-02-06T00:21:16.630Z,-0.70
2018-02-06T00:22:21.067Z,-0.82
2018-02-06T00:23:25.306Z,-0.72
2018-02-06T00:24:29.482Z,-0.60
2018-02-06T00:25:34.280Z,-0.69
2018-02-06T00:26:39.412Z,-0.72
2018-02-06T00:27:43.739Z,-0.49
2018-02-06T00:28:48.024Z,-0.48
2018-02-06T00:29:52.596Z,-0.66
2018-02-06T00:30:57.492Z,-0.88
2018-02-06T00:32:01.770Z,-0.94
2018-02-06T00:33:06.488Z,-0.94
2018-02-06T00:34:10.779Z,-0.83
2018-02-06T00:35:15.029Z,-0.85
2018-02-06T00:36:19.482Z,-0.91
2018-02-06T00:37:23.650Z,-0.92
2018-02-06T00:38:27.893Z,-1.01
2018-02-06T00:39:32.248Z,-1.05
2018-02-06T00:40:36.398Z,-1.09
2018-02-06T00:41:40.614Z,-0.93
2018-02-06T00:42:45.068Z,-0.79
2018-02-06T00:43:49.230Z,-0.53
2018-02-06T00:44:53.487Z,-0.64
2018-02-06T00:45:57.884Z,-0.87
2018-02-06T00:47:02.079Z,-1.01
2018-02-06T00:48:06.290Z,-1.04
2018-02-06T00:49:10.786Z,-0.86
2018-02-06T00:50:15.069Z,-1.04
2018-02-06T00:51:19.276Z,-0.94
2018-02-06T00:52:23.438Z,-1.07
2018-02-06T00:53:27.674Z,-1.20
2018-02-06T00:54:31.839Z,-0.89
2018-02-06T00:55:36.102Z,-0.77
2018-02-06T00:56:41.166Z,-0.87
2018-02-06T00:57:45.302Z,-0.86
2018-02-06T00:58:49.539Z,-0.94
2018-02-06T00:59:53.704Z,-0.92
2018-02-06T01:00:58.569Z,-1.12
2018-02-06T01:02:03.011Z,-1.22
2018-02-06T01:03:07.247Z,-0.73
2018-02-06T01:04:11.466Z,-0.74
2018-02-06T01:05:15.683Z,-0.66
2018-02-06T01:06:19.933Z,-0.43
2018-02-06T01:07:24.954Z,-0.42
2018-02-06T01:08:29.134Z,-0.53
2018-02-06T01:09:33.711Z,-0.44
2018-02-06T01:10:38.501Z,-0.39
2018-02-06T01:11:42.768Z,-0.53
2018-02-06T01:12:47.306Z,-0.59
2018-02-06T01:13:52.184Z,-0.57
2018-02-06T01:14:56.622Z,-0.46
2018-02-06T01:16:00.925Z,-0.48
2018-02-06T01:17:05.266Z,-0.41
2018-02-06T01:18:11.049Z,-0.41
2018-02-06T01:19:15.224Z,-0.37
2018-02-06T01:20:19.756Z,-0.31
2018-02-06T01:21:23.942Z,-0.33
2018-02-06T01:22:28.542Z,-0.36
2018-02-06T01:23:32.741Z,-0.41
2018-02-06T01:24:37.606Z,-0.43
2018-02-06T01:25:41.757Z,-0.42
2018-02-06T01:26:46.211Z,-0.35
2018-02-06T01:27:50.590Z,-0.37
2018-02-06T01:28:54.738Z,-0.30
2018-02-06T01:29:58.967Z,-0.33
2018-02-06T01:31:03.985Z,-0.30
2018-02-06T01:32:08.192Z,-0.31
2018-02-06T01:33:12.772Z,-0.27
2018-02-06T01:34:16.999Z,-0.37
2018-02-06T01:35:21.190Z,-0.34
2018-02-06T01:36:25.477Z,-0.46
2018-02-06T01:37:29.662Z,-0.33
2018-02-06T01:38:33.953Z,-0.39
2018-02-06T01:39:38.899Z,-0.32
2018-02-06T01:40:43.066Z,-0.29
2018-02-06T01:41:47.366Z,-0.20
2018-02-06T01:42:51.498Z,-0.26
2018-02-06T01:43:55.710Z,-0.22
2018-02-06T01:44:59.915Z,-0.31
2018-02-06T01:46:04.769Z,-0.28
2018-02-06T01:47:09.698Z,-0.20
2018-02-06T01:48:13.809Z,-0.22
2018-02-06T01:49:18.034Z,-0.15
2018-02-06T01:50:22.176Z,-0.21
2018-02-06T01:51:26.395Z,-0.29
2018-02-06T01:52:30.933Z,-0.15
2018-02-06T01:53:35.177Z,-0.25
2018-02-06T01:54:39.324Z,-0.17
2018-02-06T01:55:44.583Z,-0.12
2018-02-06T01:56:49.359Z,-0.19
2018-02-06T01:57:54.263Z,-0.24
2018-02-06T01:58:58.721Z,-0.11
2018-02-06T02:00:05.306Z,-0.02
2018-02-06T02:01:10.299Z,-0.03
2018-02-06T02:02:14.535Z,-0.05
2018-02-06T02:03:19.118Z,-0.04
2018-02-06T02:04:23.573Z,-0.03
2018-02-06T02:05:28.701Z,-0.06
2018-02-06T02:06:44.441Z,-0.13
2018-02-06T02:09:05.963Z,-0.17
2018-02-06T02:10:11.518Z,-0.08
2018-02-06T02:11:16.009Z,-0.04
2018-02-06T02:12:20.304Z,-0.02
2018-02-06T02:13:24.462Z,-0.06
2018-02-06T02:14:29.076Z,-0.07
2018-02-06T02:15:33.678Z,-0.09
2018-02-06T02:16:38.121Z,-0.10
2018-02-06T02:17:44.130Z,-0.12
2018-02-06T02:18:49.122Z,-0.18
2018-02-06T02:19:53.506Z,-0.18
2018-02-06T02:20:58.102Z,-0.21
2018-02-06T02:22:02.385Z,-0.20
2018-02-06T02:23:06.933Z,-0.32
2018-02-06T02:24:12.029Z,-0.35
2018-02-06T02:25:16.249Z,-0.26
2018-02-06T02:26:20.542Z,-0.27
2018-02-06T02:27:24.665Z,-0.33
2018-02-06T02:28:28.880Z,-0.34
2018-02-06T02:29:32.993Z,-0.27
2018-02-06T02:30:37.767Z,-0.30
2018-02-06T02:31:42.087Z,-0.24
2018-02-06T02:32:47.092Z,-0.25
2018-02-06T02:33:51.266Z,-0.20
2018-02-06T02:34:55.503Z,-0.19
2018-02-06T02:35:59.614Z,-0.16
2018-02-06T02:37:03.928Z,-0.21
2018-02-06T02:38:08.057Z,-0.17
2018-02-06T02:39:12.716Z,-0.17
2018-02-06T02:40:17.455Z,-0.18
2018-02-06T02:41:21.646Z,-0.29
2018-02-06T04:39:14.726Z,-0.33
2018-02-06T04:40:19.853Z,-0.36
2018-02-06T04:41:24.868Z,-0.38
2018-02-06T04:42:29.553Z,-0.42
2018-02-06T04:43:33.835Z,-0.36
2018-02-06T04:44:37.990Z,-0.37
2018-02-06T04:45:43.010Z,-0.37
2018-02-06T04:46:47.250Z,-0.40
2018-02-06T04:47:51.374Z,-0.38
2018-02-06T04:48:55.866Z,-0.39
2018-02-06T04:50:01.379Z,-0.51
2018-02-06T04:51:05.494Z,-0.44
2018-02-06T04:52:10.261Z,-0.51
2018-02-06T04:53:14.442Z,-0.54
2018-02-06T04:54:18.631Z,-0.53
2018-02-06T04:55:23.875Z,-0.51
2018-02-06T04:56:28.073Z,-0.53
2018-02-06T04:57:32.676Z,-0.57
2018-02-06T04:58:37.118Z,-0.54
2018-02-06T04:59:41.297Z,-0.62
2018-02-06T05:00:45.827Z,-0.80
2018-02-06T05:01:50.013Z,-0.70
2018-02-06T05:02:54.297Z,-0.49
2018-02-06T05:03:59.085Z,-0.45
2018-02-06T05:05:03.650Z,-0.55
2018-02-06T05:06:07.900Z,-0.55
2018-02-06T05:07:12.109Z,-0.68
2018-02-06T05:08:16.288Z,-0.72
2018-02-06T05:09:20.441Z,-0.62
2018-02-06T05:10:25.409Z,-0.72
2018-02-06T05:11:29.533Z,-0.64
2018-02-06T05:12:33.770Z,-0.70
2018-02-06T05:13:38.043Z,-0.76
2018-02-06T05:14:42.164Z,-0.81
2018-02-06T05:15:46.753Z,-1.00
2018-02-06T05:16:51.207Z,-1.12
2018-02-06T05:17:55.602Z,-1.16
2018-02-06T05:18:59.744Z,-1.24
2018-02-06T05:20:04.031Z,-1.01
2018-02-06T05:21:08.191Z,-1.04
2018-02-06T05:22:12.383Z,-1.23
2018-02-06T05:23:16.669Z,-1.49
2018-02-06T05:24:20.950Z,-1.63
2018-02-06T05:25:25.753Z,-1.57
2018-02-06T05:26:30.502Z,-1.69
2018-02-06T05:27:34.657Z,-1.71
2018-02-06T05:28:39.182Z,-1.69
2018-02-06T05:29:43.423Z,-1.38
2018-02-06T05:30:47.688Z,-1.39
2018-02-06T05:31:51.900Z,-1.58
2018-02-06T05:32:56.087Z,-1.70
2018-02-06T05:34:00.896Z,-1.60
2018-02-06T05:35:05.407Z,-1.39
2018-02-06T05:36:09.550Z,-1.31
2018-02-06T05:37:13.737Z,-1.59
2018-02-06T05:38:17.909Z,-1.67
2018-02-06T05:39:22.193Z,-1.45
2018-02-06T05:40:26.702Z,-1.52
2018-02-06T05:41:30.881Z,-1.55
2018-02-06T05:42:35.897Z,-1.30
2018-02-06T05:43:40.041Z,-1.29
2018-02-06T05:44:44.249Z,-1.50
2018-02-06T05:45:48.950Z,-1.61
2018-02-06T05:46:53.240Z,-1.57
2018-02-06T05:47:57.358Z,-1.39
2018-02-06T05:49:01.655Z,-1.26
2018-02-06T05:50:06.754Z,-1.49
2018-02-06T05:51:10.967Z,-1.42
2018-02-06T05:52:15.477Z,-1.41
2018-02-06T05:53:19.706Z,-1.47
2018-02-06T05:54:23.904Z,-1.40
2018-02-06T05:55:28.178Z,-1.49
2018-02-06T05:56:32.342Z,-1.55
2018-02-06T05:57:36.741Z,-1.51
2018-02-06T05:58:41.002Z,-1.54
2018-02-06T05:59:45.201Z,-1.53
2018-02-06T06:00:49.635Z,-1.62
2018-02-06T06:01:53.890Z,-1.74
2018-02-06T06:02:58.045Z,-1.67
2018-02-06T06:04:02.327Z,-1.58
2018-02-06T06:05:06.862Z,-1.49
2018-02-06T06:06:11.106Z,-1.71
2018-02-06T06:07:15.851Z,-1.79
2018-02-06T06:08:19.987Z,-1.96
2018-02-06T06:09:24.184Z,-2.07
2018-02-06T06:10:28.358Z,-2.16
2018-02-06T06:11:32.602Z,-2.32
2018-02-06T06:12:36.787Z,-2.39
2018-02-06T06:13:41.003Z,-2.42
2018-02-06T06:14:46.059Z,-2.37
2018-02-06T06:15:50.627Z,-2.44
2018-02-06T06:16:55.175Z,-2.44
2018-02-06T06:17:59.372Z,-2.40
2018-02-06T06:19:03.663Z,-2.37
2018-02-06T06:20:07.838Z,-2.34
2018-02-06T06:21:12.776Z,-2.18
2018-02-06T06:22:16.973Z,-2.26
2018-02-06T06:23:21.291Z,-2.33
2018-02-06T06:24:25.439Z,-2.39
2018-02-06T06:25:29.718Z,-2.51
2018-02-06T06:26:33.935Z,-2.60
2018-02-06T06:28:53.727Z,-2.25
2018-02-06T06:29:57.854Z,-2.33
2018-02-06T06:31:02.219Z,-2.41
2018-02-06T06:32:07.384Z,-2.43
2018-02-06T06:33:11.913Z,-2.48
2018-02-06T06:34:16.230Z,-2.53
2018-02-06T06:35:20.378Z,-2.58
2018-02-06T06:36:24.580Z,-2.61
2018-02-06T06:37:28.774Z,-2.61
2018-02-06T06:38:32.996Z,-2.61
2018-02-06T06:39:37.615Z,-2.70
2018-02-06T06:40:42.957Z,-2.71
2018-02-06T06:41:47.175Z,-2.60
2018-02-06T06:42:51.366Z,-2.63
2018-02-06T06:43:55.574Z,-2.39
2018-02-06T06:44:59.783Z,-2.13
2018-02-06T06:46:06.278Z,-1.91
2018-02-06T06:47:10.466Z,-1.79
2018-02-06T06:48:15.266Z,-1.57
2018-02-06T06:49:19.420Z,-1.48
2018-02-06T06:50:23.642Z,-1.63
2018-02-06T06:51:27.858Z,-1.79
2018-02-06T06:52:32.150Z,-1.79
2018-02-06T06:53:36.374Z,-1.85
2018-02-06T06:54:41.638Z,-1.99
2018-02-06T06:55:45.891Z,-2.15
2018-02-06T06:56:50.059Z,-2.24
2018-02-06T06:57:54.289Z,-2.37
2018-02-06T06:58:58.827Z,-2.41
2018-02-06T07:00:04.794Z,-2.44
2018-02-06T07:01:09.145Z,-2.49
2018-02-06T07:02:13.965Z,-2.42
2018-02-06T07:03:18.518Z,-2.46
2018-02-06T07:04:22.914Z,-2.36
2018-02-06T07:05:27.686Z,-2.52
2018-02-06T07:06:31.847Z,-2.59
2018-02-06T07:07:36.098Z,-2.38
2018-02-06T07:08:40.833Z,-2.36
2018-02-06T07:09:46.044Z,-2.46
2018-02-06T07:10:50.227Z,-2.54
2018-02-06T07:11:54.681Z,-2.66
2018-02-06T07:12:58.894Z,-2.74
2018-02-06T07:14:03.225Z,-2.75
2018-02-06T07:15:07.720Z,-2.74
2018-02-06T07:16:12.895Z,-2.67
2018-02-06T07:17:17.050Z,-2.69
2018-02-06T07:18:21.231Z,-2.67
2018-02-06T07:19:25.426Z,-2.65
2018-02-06T07:20:29.741Z,-2.69
2018-02-06T07:21:33.930Z,-2.68
2018-02-06T07:22:38.083Z,-2.69
2018-02-06T07:23:42.322Z,-2.50
2018-02-06T07:24:46.570Z,-2.20
2018-02-06T07:25:51.449Z,-1.89
2018-02-06T07:26:55.665Z,-1.86
2018-02-06T07:27:59.851Z,-1.90
2018-02-06T07:29:04.038Z,-1.83
2018-02-06T07:30:08.344Z,-1.76
2018-02-06T07:31:12.982Z,-1.66
2018-02-06T07:32:17.166Z,-1.63
2018-02-06T07:33:21.307Z,-1.54
2018-02-06T07:34:25.821Z,-1.46
2018-02-06T07:35:29.984Z,-1.38
2018-02-06T07:36:34.289Z,-1.42
2018-02-06T07:37:38.574Z,-1.26
2018-02-06T07:38:43.392Z,-1.19
2018-02-06T07:39:47.607Z,-0.95
2018-02-06T07:40:51.870Z,-1.01
2018-02-06T07:41:56.094Z,-1.07
2018-02-06T07:43:00.251Z,-0.95
2018-02-06T07:44:04.474Z,-0.66
2018-02-06T07:45:09.869Z,-0.30
2018-02-06T07:46:14.517Z,-0.33
2018-02-06T07:47:18.788Z,-0.38
2018-02-06T07:48:23.079Z,-0.36
2018-02-06T07:49:27.304Z,0.00
2018-02-06T07:50:31.531Z,-0.17
2018-02-06T07:51:35.810Z,-0.27
2018-02-06T07:52:40.175Z,-0.23
2018-02-06T07:53:44.382Z,-0.23
2018-02-06T07:54:49.462Z,-0.26
2018-02-06T07:55:53.810Z,-0.20
2018-02-06T07:56:57.953Z,0.26
2018-02-06T07:58:02.474Z,0.43
2018-02-06T07:59:06.634Z,0.35
2018-02-06T08:00:10.804Z,0.33
2018-02-06T08:01:15.100Z,0.16
2018-02-06T08:02:20.044Z,0.11
2018-02-06T08:03:24.245Z,0.03
2018-02-06T08:04:28.705Z,0.08
2018-02-06T08:05:32.906Z,-0.03
2018-02-06T08:06:37.246Z,-0.07
2018-02-06T08:07:41.465Z,-0.15
2018-02-06T08:08:45.751Z,0.23
2018-02-06T08:09:49.889Z,0.66
2018-02-06T08:10:54.415Z,0.84
2018-02-06T08:11:58.711Z,0.70
2018-02-06T08:13:02.927Z,0.37
2018-02-06T08:14:07.210Z,0.56
2018-02-06T08:15:13.069Z,0.59
2018-02-06T08:16:17.268Z,0.51
2018-02-06T08:17:21.549Z,0.41
2018-02-06T08:18:25.706Z,0.73
2018-02-06T08:19:29.836Z,0.97
2018-02-06T08:20:33.997Z,1.08
2018-02-06T08:21:38.309Z,1.42
2018-02-06T08:22:42.559Z,1.65
2018-02-06T08:23:47.689Z,2.03
2018-02-06T08:24:51.910Z,2.00
2018-02-06T08:25:56.711Z,2.17
2018-02-06T08:27:01.012Z,2.27
2018-02-06T08:28:05.168Z,2.50
2018-02-06T08:29:09.310Z,2.60
2018-02-06T08:30:17.006Z,2.79
2018-02-06T08:31:21.490Z,2.50
2018-02-06T08:32:25.743Z,2.38
2018-02-06T08:33:30.011Z,2.55
2018-02-06T08:34:34.354Z,2.54
2018-02-06T08:35:38.564Z,2.50
2018-02-06T08:36:42.884Z,2.41
2018-02-06T08:37:47.104Z,2.66
2018-02-06T08:38:51.255Z,3.19
2018-02-06T08:39:55.455Z,3.50
2018-02-06T08:40:59.811Z,3.24
2018-02-06T08:42:03.978Z,3.46
2018-02-06T08:43:08.393Z,3.51
2018-02-06T08:44:12.646Z,3.56
2018-02-06T08:45:17.611Z,3.64
2018-02-06T08:46:21.889Z,3.68
2018-02-06T08:47:26.119Z,3.79
2018-02-06T08:48:30.276Z,3.75
2018-02-06T08:49:34.586Z,3.60
2018-02-06T08:50:38.802Z,3.15
2018-02-06T08:51:43.426Z,3.15
2018-02-06T08:52:47.596Z,3.21
2018-02-06T08:53:51.817Z,3.08
2018-02-06T08:54:56.258Z,3.54
2018-02-06T08:56:00.528Z,3.37
2018-02-06T08:57:04.862Z,3.28
2018-02-06T08:58:09.344Z,3.22
2018-02-06T08:59:13.662Z,3.61
2018-02-06T09:00:18.414Z,4.01
2018-02-06T09:01:22.635Z,3.89
2018-02-06T09:02:26.928Z,3.88
2018-02-06T09:03:31.170Z,4.13
2018-02-06T09:04:35.383Z,4.22
2018-02-06T09:05:39.778Z,3.94
2018-02-06T09:06:43.896Z,3.98
2018-02-06T09:07:48.202Z,3.91
2018-02-06T09:08:52.405Z,4.29
2018-02-06T09:09:56.741Z,4.23
2018-02-06T09:11:01.599Z,4.01
2018-02-06T09:12:05.779Z,3.83
2018-02-06T09:13:10.186Z,4.22
2018-02-06T09:14:14.392Z,4.33
2018-02-06T09:15:18.871Z,4.18
2018-02-06T09:16:23.046Z,3.81
2018-02-06T09:17:27.249Z,3.67
2018-02-06T09:18:31.562Z,3.44
2018-02-06T09:19:35.811Z,3.09
2018-02-06T09:20:40.054Z,3.26
2018-02-06T09:21:44.318Z,3.20
2018-02-06T09:22:48.711Z,3.02
2018-02-06T09:23:53.098Z,2.94
2018-02-06T09:24:57.286Z,2.92
2018-02-06T09:26:02.440Z,2.96
2018-02-06T09:27:06.610Z,2.90
2018-02-06T09:28:11.190Z,2.82
2018-02-06T09:29:15.525Z,2.72
2018-02-06T09:30:19.976Z,2.67
2018-02-06T09:31:24.150Z,2.82
2018-02-06T09:32:28.370Z,2.93
2018-02-06T09:33:32.558Z,3.05
2018-02-06T09:34:37.308Z,2.94
2018-02-06T09:35:41.548Z,3.13
2018-02-06T09:36:45.990Z,3.23
2018-02-06T09:37:50.171Z,3.26
2018-02-06T09:38:54.450Z,3.30
2018-02-06T09:39:59.414Z,3.38
2018-02-06T09:41:03.582Z,3.41
2018-02-06T09:42:07.753Z,3.54
2018-02-06T09:43:11.875Z,3.67
2018-02-06T09:44:16.841Z,3.83
2018-02-06T09:45:21.477Z,3.83
2018-02-06T09:46:26.006Z,3.78
2018-02-06T09:47:30.161Z,3.91
2018-02-06T09:48:34.388Z,3.87
2018-02-06T09:49:38.630Z,3.93
2018-02-06T09:50:43.792Z,3.98
2018-02-06T09:51:47.971Z,3.88
2018-02-06T09:52:52.211Z,4.10
2018-02-06T09:53:56.373Z,4.39
2018-02-06T09:55:00.809Z,4.38
2018-02-06T09:56:05.063Z,4.56
2018-02-06T09:57:09.595Z,4.93
2018-02-06T09:58:13.740Z,5.09
2018-02-06T09:59:17.979Z,5.01
2018-02-06T10:00:23.263Z,5.13
2018-02-06T10:01:27.513Z,5.25
2018-02-06T10:02:31.773Z,5.31
2018-02-06T10:03:36.355Z,5.49
2018-02-06T10:04:40.572Z,5.46
2018-02-06T10:05:44.834Z,5.43
2018-02-06T10:06:49.021Z,5.13
2018-02-06T10:07:53.300Z,5.25
2018-02-06T10:08:57.478Z,5.50
2018-02-06T10:10:01.861Z,5.36
2018-02-06T10:11:06.039Z,5.33
2018-02-06T10:12:10.320Z,5.67
2018-02-06T10:13:14.534Z,5.92
2018-02-06T10:14:18.682Z,5.88
2018-02-06T10:15:24.438Z,5.84
2018-02-06T10:16:28.944Z,5.93
2018-02-06T10:17:33.252Z,6.04
2018-02-06T10:18:37.639Z,5.83
2018-02-06T10:19:41.807Z,5.55
2018-02-06T10:20:46.193Z,5.60
2018-02-06T10:21:50.533Z,5.40
2018-02-06T10:22:54.794Z,5.29
2018-02-06T10:23:59.030Z,5.26
2018-02-06T10:25:03.371Z,5.35
2018-02-06T10:26:07.681Z,5.52
2018-02-06T10:27:12.188Z,5.74
2018-02-06T10:28:16.366Z,6.02
2018-02-06T10:29:20.684Z,6.19
2018-02-06T10:30:25.407Z,6.03
2018-02-06T10:31:29.633Z,6.29
2018-02-06T10:32:33.874Z,6.56
2018-02-06T10:33:38.079Z,7.12
2018-02-06T10:34:42.252Z,7.29
2018-02-06T10:35:46.552Z,7.13
2018-02-06T10:36:50.885Z,7.30
2018-02-06T10:37:55.174Z,7.42
2018-02-06T10:38:59.447Z,7.00
2018-02-06T10:40:03.988Z,6.59
2018-02-06T10:41:08.387Z,6.57
2018-02-06T10:42:12.709Z,7.03
2018-02-06T10:43:17.061Z,7.26
2018-02-06T10:44:21.698Z,7.63
2018-02-06T10:45:26.736Z,7.84
2018-02-06T10:46:31.088Z,7.77
2018-02-06T10:47:35.263Z,7.74
2018-02-06T10:48:39.536Z,7.73
2018-02-06T10:49:43.800Z,7.23
2018-02-06T10:50:48.023Z,6.89
2018-02-06T10:51:52.223Z,6.93
2018-02-06T10:52:56.399Z,6.47
2018-02-06T10:54:00.716Z,6.33
2018-02-06T10:55:05.053Z,5.78
2018-02-06T10:56:09.274Z,5.23
2018-02-06T10:57:13.764Z,5.08
2018-02-06T10:58:18.684Z,4.98
2018-02-06T10:59:22.922Z,4.70
2018-02-06T11:00:28.132Z,4.63
2018-02-06T11:01:32.349Z,4.42
2018-02-06T11:02:36.821Z,4.42
2018-02-06T11:03:41.035Z,4.44
2018-02-06T11:04:45.361Z,4.75
2018-02-06T11:05:49.677Z,4.62
2018-02-06T11:06:53.908Z,4.59
2018-02-06T11:07:58.201Z,3.98
2018-02-06T11:09:02.520Z,3.83
2018-02-06T11:10:06.733Z,4.20
2018-02-06T11:11:10.898Z,4.51
2018-02-06T11:12:15.113Z,4.54
2018-02-06T11:13:19.361Z,4.96
2018-02-06T11:14:23.958Z,4.80
2018-02-06T11:15:28.368Z,4.72
2018-02-06T11:16:33.526Z,4.54
2018-02-06T11:17:37.823Z,4.53
2018-02-06T11:18:42.099Z,4.92
2018-02-06T11:19:46.342Z,4.87
2018-02-06T11:20:50.975Z,5.13
2018-02-06T11:21:55.247Z,4.84
2018-02-06T11:22:59.458Z,4.43
2018-02-06T11:24:03.744Z,4.52
2018-02-06T11:25:08.001Z,4.27
2018-02-06T11:26:12.390Z,4.62
2018-02-06T11:27:16.684Z,4.72
2018-02-06T11:28:20.886Z,5.59
2018-02-06T11:29:25.141Z,5.71
2018-02-06T11:30:30.485Z,5.87
2018-02-06T11:31:35.329Z,5.20
2018-02-06T11:32:39.844Z,5.74
2018-02-06T11:33:44.022Z,5.89
2018-02-06T11:34:48.245Z,5.61
2018-02-06T11:35:52.530Z,6.82
2018-02-06T11:36:56.801Z,7.02
2018-02-06T11:38:01.176Z,6.57
2018-02-06T11:39:05.764Z,6.57
2018-02-06T11:40:10.768Z,5.89
2018-02-06T11:41:14.999Z,5.57
2018-02-06T11:42:19.319Z,5.98
2018-02-06T11:43:23.625Z,6.03
2018-02-06T11:44:27.882Z,5.92
2018-02-06T11:45:34.081Z,5.53
2018-02-06T11:46:38.288Z,5.51
2018-02-06T11:47:42.468Z,5.39
2018-02-06T11:48:46.730Z,5.01
2018-02-06T11:49:50.912Z,5.18
2018-02-06T11:50:55.156Z,5.33
2018-02-06T11:51:59.421Z,5.00
2018-02-06T11:53:03.732Z,5.69
2018-02-06T11:54:08.869Z,6.01
2018-02-06T11:55:14.153Z,6.26
2018-02-06T11:56:18.747Z,5.67
2018-02-06T11:57:22.956Z,6.21
2018-02-06T11:58:27.226Z,5.43
2018-02-06T11:59:31.477Z,5.22
2018-02-06T12:00:35.945Z,5.07
2018-02-06T12:01:40.139Z,4.99
2018-02-06T12:02:45.316Z,4.98
2018-02-06T12:03:49.604Z,4.99
2018-02-06T12:04:53.840Z,4.84
2018-02-06T12:05:58.160Z,4.94
2018-02-06T12:07:02.492Z,4.38
2018-02-06T12:08:07.006Z,4.26
2018-02-06T12:09:12.721Z,4.39
2018-02-06T12:10:16.885Z,4.96
2018-02-06T12:11:22.272Z,5.54
2018-02-06T12:12:26.670Z,5.40
2018-02-06T12:13:30.836Z,5.14
2018-02-06T12:14:35.020Z,5.42
2018-02-06T12:15:39.271Z,5.65
2018-02-06T12:16:43.540Z,5.21
2018-02-06T12:17:47.833Z,4.56
2018-02-06T12:18:52.093Z,5.24
2018-02-06T12:19:56.342Z,4.47
2018-02-06T12:21:00.686Z,4.42
2018-02-06T12:22:05.188Z,4.89
2018-02-06T12:23:09.429Z,5.74
2018-02-06T12:24:13.612Z,5.98
2018-02-06T12:25:17.940Z,7.32
2018-02-06T12:26:22.125Z,7.50
2018-02-06T12:27:26.647Z,7.97
2018-02-06T12:28:31.005Z,7.73
2018-02-06T12:29:35.266Z,7.33
2018-02-06T12:30:39.728Z,7.93
2018-02-06T12:31:43.971Z,8.63
2018-02-06T12:32:48.192Z,9.39
2018-02-06T12:33:52.778Z,10.10
2018-02-06T12:34:57.042Z,10.47
2018-02-06T12:36:01.410Z,11.02
2018-02-06T12:37:05.654Z,11.26
2018-02-06T12:38:10.786Z,9.50
2018-02-06T12:39:15.000Z,9.65
2018-02-06T12:40:19.585Z,9.67
2018-02-06T12:41:23.884Z,8.97
2018-02-06T12:42:28.124Z,8.68
2018-02-06T12:43:32.492Z,8.56
2018-02-06T12:44:36.691Z,8.38
2018-02-06T12:45:41.772Z,8.54
2018-02-06T12:46:46.045Z,8.26
2018-02-06T12:47:50.289Z,9.02
2018-02-06T12:48:54.525Z,8.82
2018-02-06T12:49:58.703Z,7.36
2018-02-06T12:51:02.943Z,7.45
2018-02-06T12:52:07.305Z,8.20
2018-02-06T12:53:11.496Z,7.87
2018-02-06T12:54:16.547Z,8.76
2018-02-06T12:55:20.743Z,9.02
2018-02-06T12:56:25.039Z,9.01
2018-02-06T12:57:29.299Z,9.49
2018-02-06T12:58:33.956Z,9.67
2018-02-06T12:59:38.156Z,8.07
2018-02-06T13:00:42.779Z,8.17
2018-02-06T13:01:47.058Z,8.22
2018-02-06T13:02:51.438Z,8.58
2018-02-06T13:03:55.649Z,8.17
2018-02-06T13:04:59.971Z,8.94
2018-02-06T13:06:04.365Z,8.69
2018-02-06T13:07:08.645Z,8.87
2018-02-06T13:08:13.880Z,8.93
2018-02-06T13:09:18.517Z,9.13
2018-02-06T13:10:23.170Z,9.16
2018-02-06T13:11:27.926Z,8.72
2018-02-06T13:12:32.156Z,8.53
2018-02-06T13:13:36.537Z,8.35
2018-02-06T13:14:41.335Z,8.55
2018-02-06T13:15:47.262Z,8.84
2018-02-06T13:16:51.689Z,8.86
2018-02-06T13:17:55.989Z,9.29
2018-02-06T13:19:01.105Z,10.15
2018-02-06T13:20:05.650Z,10.85
2018-02-06T13:21:10.794Z,9.96
2018-02-06T13:22:16.000Z,9.92
2018-02-06T13:23:20.364Z,10.50
2018-02-06T13:24:24.663Z,11.12
2018-02-06T13:25:29.019Z,10.60
2018-02-06T13:26:33.317Z,9.56
2018-02-06T13:27:37.915Z,9.17
2018-02-06T13:28:43.587Z,9.16
2018-02-06T13:29:47.914Z,9.30
2018-02-06T13:30:52.166Z,9.49
2018-02-06T13:31:56.444Z,9.51
2018-02-06T13:33:00.796Z,9.95
2018-02-06T13:34:05.386Z,10.41
2018-02-06T13:35:10.232Z,10.55
2018-02-06T13:36:15.160Z,10.60
2018-02-06T13:37:19.421Z,11.04
2018-02-06T13:38:23.653Z,11.41
2018-02-06T13:39:27.961Z,10.88
2018-02-06T13:40:32.260Z,11.44
2018-02-06T13:41:37.444Z,11.37
2018-02-06T13:42:41.756Z,10.81
2018-02-06T13:43:46.276Z,10.26
2018-02-06T13:44:50.729Z,9.74
2018-02-06T13:45:55.841Z,10.19
2018-02-06T13:47:00.221Z,10.69
2018-02-06T13:48:04.660Z,10.55
2018-02-06T13:49:09.109Z,10.98
2018-02-06T13:50:14.320Z,11.28
2018-02-06T13:51:18.625Z,10.92
2018-02-06T13:52:22.929Z,10.80
2018-02-06T13:53:27.419Z,10.80
2018-02-06T13:54:31.653Z,10.35
2018-02-06T13:55:35.887Z,10.47
2018-02-06T13:56:40.254Z,10.90
2018-02-06T13:57:46.036Z,10.80
2018-02-06T13:58:50.354Z,10.39
2018-02-06T13:59:54.772Z,10.99
2018-02-06T14:00:59.200Z,10.83
2018-02-06T14:02:03.563Z,9.95
2018-02-06T14:03:07.781Z,10.10
2018-02-06T14:04:13.036Z,9.68
2018-02-06T14:05:17.317Z,9.61
2018-02-06T14:06:21.654Z,8.81
2018-02-06T14:07:25.858Z,9.07
2018-02-06T14:08:30.359Z,10.34
2018-02-06T14:09:35.054Z,10.45
2018-02-06T14:10:39.280Z,10.50
2018-02-06T14:11:44.468Z,9.78
2018-02-06T14:12:48.701Z,9.37
2018-02-06T14:13:53.093Z,9.98
2018-02-06T14:14:58.070Z,10.07
2018-02-06T14:16:03.192Z,9.82
2018-02-06T14:17:07.685Z,9.55
2018-02-06T14:18:13.307Z,9.23
2018-02-06T14:19:17.566Z,9.20
2018-02-06T14:20:21.911Z,9.67
2018-02-06T14:21:26.172Z,9.09
2018-02-06T14:22:30.754Z,9.77
2018-02-06T14:23:35.102Z,9.90
2018-02-06T14:24:39.419Z,10.28
2018-02-06T14:25:43.626Z,10.14
2018-02-06T14:26:47.905Z,9.90
2018-02-06T14:27:52.118Z,8.91
2018-02-06T14:28:56.490Z,9.36
2018-02-06T14:30:00.847Z,10.02
2018-02-06T14:31:05.244Z,9.68
2018-02-06T14:32:09.447Z,9.40
2018-02-06T14:33:14.592Z,8.95
2018-02-06T14:34:18.923Z,8.73
2018-02-06T14:35:24.849Z,8.21
2018-02-06T14:36:30.417Z,7.84
2018-02-06T14:37:35.659Z,8.47
2018-02-06T14:38:40.933Z,8.98
2018-02-06T14:39:47.303Z,10.01
2018-02-06T14:40:52.804Z,8.51
2018-02-06T14:41:58.087Z,8.97
2018-02-06T14:43:03.191Z,8.93
2018-02-06T14:44:08.359Z,8.70
2018-02-06T14:45:16.892Z,8.97
2018-02-06T14:46:21.570Z,8.82
2018-02-06T14:47:26.295Z,8.21
2018-02-06T14:48:30.761Z,7.69
2018-02-06T14:49:35.317Z,8.38
2018-02-06T14:50:39.685Z,8.43
2018-02-06T14:51:43.998Z,8.44
2018-02-06T14:52:48.192Z,8.94
2018-02-06T14:53:52.486Z,9.15
2018-02-06T14:54:56.906Z,8.69
2018-02-06T14:56:01.222Z,8.42
2018-02-06T14:57:05.550Z,7.98
2018-02-06T14:58:10.133Z,7.51
2018-02-06T14:59:14.624Z,7.48
2018-02-06T15:00:19.201Z,7.66
2018-02-06T15:01:23.845Z,7.67
2018-02-06T15:02:28.038Z,8.12
2018-02-06T15:03:32.291Z,7.93
2018-02-06T15:04:36.706Z,8.33
2018-02-06T15:05:41.535Z,7.76
2018-02-06T15:06:46.501Z,7.43
2018-02-06T15:07:50.878Z,7.17
2018-02-06T15:08:55.510Z,6.74
2018-02-06T15:10:00.275Z,6.35
2018-02-06T15:11:04.676Z,5.53
2018-02-06T15:12:08.890Z,4.61
2018-02-06T15:13:13.327Z,3.98
2018-02-06T15:14:17.656Z,3.63
2018-02-06T15:15:22.428Z,3.34
2018-02-06T15:16:26.691Z,3.05
2018-02-06T15:17:31.035Z,3.03
2018-02-06T15:18:35.376Z,3.02
2018-02-06T15:19:39.704Z,2.83
2018-02-06T15:20:44.359Z,2.52
2018-02-06T15:21:49.541Z,2.25
2018-02-06T15:22:53.926Z,2.15
2018-02-06T15:23:58.727Z,1.99
2018-02-06T15:25:03.989Z,1.86
2018-02-06T15:26:08.243Z,1.86
2018-02-06T15:27:12.781Z,1.81
2018-02-06T15:28:17.138Z,1.67
2018-02-06T15:29:21.392Z,1.60
2018-02-06T15:30:26.863Z,1.58
2018-02-06T15:31:32.792Z,1.53
2018-02-06T15:32:37.102Z,1.41
2018-02-06T15:33:41.388Z,1.33
2018-02-06T15:34:45.645Z,1.30
2018-02-06T15:35:49.990Z,1.28
2018-02-06T15:36:54.280Z,1.27
2018-02-06T15:37:58.572Z,1.20
2018-02-06T15:39:03.660Z,1.17
2018-02-06T15:40:08.171Z,1.24
2018-02-06T15:41:12.541Z,1.27
2018-02-06T15:42:16.867Z,1.22
2018-02-06T15:43:21.112Z,1.21
2018-02-06T15:44:25.369Z,1.27
2018-02-06T15:45:29.950Z,1.40
2018-02-06T15:46:34.299Z,1.37
2018-02-06T15:47:38.706Z,1.49
2018-02-06T15:48:45.671Z,1.56
2018-02-06T15:49:49.931Z,1.60
2018-02-06T15:50:54.297Z,1.42
2018-02-06T15:51:58.542Z,1.39
2018-02-06T15:53:03.548Z,1.44
2018-02-06T15:54:07.819Z,1.50
2018-02-06T15:55:12.312Z,1.53
2018-02-06T15:56:16.942Z,1.49
2018-02-06T15:57:22.335Z,1.30
2018-02-06T15:58:26.815Z,1.10
2018-02-06T15:59:31.112Z,1.05
2018-02-06T16:00:35.886Z,0.97
2018-02-06T16:01:40.976Z,0.83
2018-02-06T16:02:45.377Z,0.72
2018-02-06T16:03:49.682Z,0.66